Time;durP1;ratioP1;P1;durP2;ratioP2;P2;SDS_P1;SDS_P2;PMS_P1;PMS_P2;Temp;Humidity;BMP_temperature;BMP_pressure;BME280_temperature;BME280_humidity;BME280_pressure;Samples;Min_cycle;Max_cycle;Signal;HPM_P1;HPM_P2
2022/07/24 00:02:12;;;;;;;;;;;17.20;99.90;;;;;;5072005;28;20353;-74
2022/07/24 00:04:37;;;;;;;;;;;17.10;99.90;;;;;;5072187;28;19908;-74
2022/07/24 00:07:03;;;;;;;;;;;17.00;99.90;;;;;;5072566;28;19932;-74
2022/07/24 00:09:28;;;;;;;;;;;16.90;99.90;;;;;;5071323;28;19908;-74
2022/07/24 00:11:53;;;;;;;;;;;17.00;99.90;;;;;;5072455;28;19909;-74
2022/07/24 00:14:19;;;;;;;;;;;17.00;99.90;;;;;;5071883;28;19999;-74
2022/07/24 00:16:44;;;;;;;;;;;16.90;99.90;;;;;;5072368;28;19915;-74
2022/07/24 00:19:10;;;;;;;;;;;16.90;99.90;;;;;;5070909;28;19913;-74
2022/07/24 00:21:35;;;;;;;;;;;16.80;99.90;;;;;;5071844;28;20502;-74
2022/07/24 00:24:01;;;;;;;;;;;16.90;99.90;;;;;;5070985;28;19916;-73
2022/07/24 00:26:27;;;;;;;;;;;16.80;99.90;;;;;;5071939;28;19908;-74
2022/07/24 00:28:52;;;;;;;;;;;16.80;99.90;;;;;;5072222;28;19938;-74
2022/07/24 00:31:18;;;;;;;;;;;16.80;99.90;;;;;;5071630;28;19962;-74
2022/07/24 00:33:44;;;;;;;;;;;16.70;99.90;;;;;;5069817;28;19909;-74
2022/07/24 00:36:10;;;;;;;;;;;16.80;99.90;;;;;;5072083;28;19991;-74
2022/07/24 00:38:35;;;;;;;;;;;16.90;99.90;;;;;;5071818;28;19912;-74
2022/07/24 00:41:01;;;;;;;;;;;16.90;99.90;;;;;;5071892;28;19908;-74
2022/07/24 00:43:26;;;;;;;;;;;17.00;99.90;;;;;;5071071;28;19916;-74
2022/07/24 00:45:52;;;;;;;;;;;17.10;99.90;;;;;;5071978;28;19913;-74
2022/07/24 00:48:17;;;;;;;;;;;17.20;99.90;;;;;;5071506;28;19995;-74
2022/07/24 00:50:43;;;;;;;;;;;17.30;99.90;;;;;;5072020;28;19930;-74
2022/07/24 00:53:08;;;;;;;;;;;17.30;99.90;;;;;;5069318;28;20305;-74
2022/07/24 00:55:34;;;;;;;;;;;17.20;99.90;;;;;;5075973;28;19912;-73
2022/07/24 00:58:00;;;;;;;;;;;17.10;99.90;;;;;;5071178;28;19913;-72
2022/07/24 01:00:25;;;;;;;;;;;17.00;99.90;;;;;;5070443;28;20431;-74
2022/07/24 01:02:51;;;;;;;;;;;16.90;99.90;;;;;;5070977;28;20289;-74
2022/07/24 01:05:17;;;;;;;;;;;16.90;99.90;;;;;;5071247;28;19908;-73
2022/07/24 01:07:43;;;;;;;;;;;17.10;99.90;;;;;;5071317;28;19916;-74
2022/07/24 01:10:08;;;;;;;;;;;17.10;99.90;;;;;;5071505;28;20008;-72
2022/07/24 01:12:35;;;;;;;;;;;17.20;99.90;;;;;;5070001;28;19915;-74
2022/07/24 01:15:00;;;;;;;;;;;17.20;99.90;;;;;;5070966;28;19995;-74
2022/07/24 01:17:30;;;;;;;;;;;17.00;99.90;;;;;;5072136;28;20377;-74
2022/07/24 01:19:56;;;;;;;;;;;17.00;99.90;;;;;;5070492;28;19915;-74
2022/07/24 01:22:22;;;;;;;;;;;16.90;99.90;;;;;;5071032;28;20019;-74
2022/07/24 01:24:48;;;;;;;;;;;16.80;99.90;;;;;;5074533;28;20004;-74
2022/07/24 01:27:14;;;;;;;;;;;16.80;99.90;;;;;;5071535;28;19999;-74
2022/07/24 01:29:40;;;;;;;;;;;16.80;99.90;;;;;;5071458;28;19995;-74
2022/07/24 01:32:06;;;;;;;;;;;16.70;99.90;;;;;;5071044;28;20008;-74
2022/07/24 01:34:31;;;;;;;;;;;16.60;99.90;;;;;;5070931;28;19909;-74
2022/07/24 01:36:57;;;;;;;;;;;16.50;99.90;;;;;;5070049;28;19917;-73
2022/07/24 01:39:22;;;;;;;;;;;16.50;99.90;;;;;;5069707;28;19924;-74
2022/07/24 01:41:48;;;;;;;;;;;16.60;99.90;;;;;;5071193;28;19909;-74
2022/07/24 01:44:13;;;;;;;;;;;16.50;99.90;;;;;;5070751;28;20418;-74
2022/07/24 01:46:39;;;;;;;;;;;16.40;99.90;;;;;;5071375;28;19912;-74
2022/07/24 01:49:04;;;;;;;;;;;16.40;99.90;;;;;;5071317;28;20196;-74
2022/07/24 01:51:30;;;;;;;;;;;16.40;99.90;;;;;;5070848;28;20361;-74
2022/07/24 01:53:55;;;;;;;;;;;16.40;99.90;;;;;;5070128;28;19909;-73
2022/07/24 01:56:21;;;;;;;;;;;16.50;99.90;;;;;;5070935;28;19995;-74
2022/07/24 01:58:46;;;;;;;;;;;16.50;99.90;;;;;;5071079;28;19915;-74
2022/07/24 02:01:12;;;;;;;;;;;16.50;99.90;;;;;;5071068;28;20356;-74
2022/07/24 02:03:38;;;;;;;;;;;16.40;99.90;;;;;;5070317;28;20365;-74
2022/07/24 02:06:04;;;;;;;;;;;16.30;99.90;;;;;;5071068;28;19909;-74
2022/07/24 02:08:30;;;;;;;;;;;16.30;99.90;;;;;;5070712;28;19995;-74
2022/07/24 02:10:55;;;;;;;;;;;16.20;99.90;;;;;;5074302;28;20404;-74
2022/07/24 02:13:21;;;;;;;;;;;16.20;99.90;;;;;;5073682;28;20262;-74
2022/07/24 02:15:46;;;;;;;;;;;16.30;99.90;;;;;;5074804;28;20433;-74
2022/07/24 02:18:11;;;;;;;;;;;16.30;99.90;;;;;;5074579;28;20348;-72
2022/07/24 02:20:37;;;;;;;;;;;16.20;99.90;;;;;;5074746;28;19919;-74
2022/07/24 02:23:02;;;;;;;;;;;16.10;99.90;;;;;;5073428;28;19921;-74
2022/07/24 02:25:28;;;;;;;;;;;16.00;99.90;;;;;;5084249;28;19934;-74
2022/07/24 02:27:53;;;;;;;;;;;16.00;99.90;;;;;;5075238;28;20387;-74
2022/07/24 02:30:21;;;;;;;;;;;16.00;99.90;;;;;;5074347;28;20438;-74
2022/07/24 02:32:47;;;;;;;;;;;16.00;99.90;;;;;;5073924;28;19908;-74
2022/07/24 02:35:12;;;;;;;;;;;16.00;99.90;;;;;;5073858;28;20007;-73
2022/07/24 02:37:39;;;;;;;;;;;15.90;99.90;;;;;;5074461;28;20354;-74
2022/07/24 02:40:05;;;;;;;;;;;15.80;99.90;;;;;;5072119;28;20196;-72
2022/07/24 02:42:30;;;;;;;;;;;15.80;99.90;;;;;;5073827;28;19913;-73
2022/07/24 02:44:56;;;;;;;;;;;15.90;99.90;;;;;;5073790;28;20340;-74
2022/07/24 02:47:21;;;;;;;;;;;15.70;99.90;;;;;;5074252;28;19954;-74
2022/07/24 02:49:47;;;;;;;;;;;15.70;99.90;;;;;;5074188;28;19913;-74
2022/07/24 02:52:12;;;;;;;;;;;15.70;99.90;;;;;;5073637;28;19913;-72
2022/07/24 02:54:38;;;;;;;;;;;15.70;99.90;;;;;;5072921;28;19920;-74
2022/07/24 02:57:03;;;;;;;;;;;15.50;99.90;;;;;;5074442;28;20011;-74
2022/07/24 02:59:29;;;;;;;;;;;15.50;99.90;;;;;;5074418;28;20345;-73
2022/07/24 03:01:54;;;;;;;;;;;15.50;99.90;;;;;;5073497;28;19916;-74
2022/07/24 03:04:20;;;;;;;;;;;15.40;99.90;;;;;;5073391;28;19913;-74
2022/07/24 03:06:45;;;;;;;;;;;15.40;99.90;;;;;;5073696;28;19908;-74
2022/07/24 03:09:11;;;;;;;;;;;15.40;99.90;;;;;;5073474;28;19913;-73
2022/07/24 03:11:36;;;;;;;;;;;15.40;99.90;;;;;;5073452;28;19912;-74
2022/07/24 03:14:02;;;;;;;;;;;15.40;99.90;;;;;;5073209;28;19913;-74
2022/07/24 03:16:27;;;;;;;;;;;15.20;99.90;;;;;;5073538;28;19934;-74
2022/07/24 03:18:53;;;;;;;;;;;15.20;99.90;;;;;;5073452;28;20004;-74
2022/07/24 03:21:19;;;;;;;;;;;15.30;99.90;;;;;;5073015;28;19947;-74
2022/07/24 03:23:45;;;;;;;;;;;15.30;99.90;;;;;;5072981;28;19927;-74
2022/07/24 03:26:10;;;;;;;;;;;15.30;99.90;;;;;;5080255;28;19908;-74
2022/07/24 03:28:36;;;;;;;;;;;15.20;99.90;;;;;;5066636;28;19908;-73
2022/07/24 03:31:01;;;;;;;;;;;15.20;99.90;;;;;;5073532;28;20014;-74
2022/07/24 03:33:27;;;;;;;;;;;15.20;99.90;;;;;;5072404;28;20123;-75
2022/07/24 03:35:53;;;;;;;;;;;15.10;99.90;;;;;;5073220;28;19912;-75
2022/07/24 03:38:18;;;;;;;;;;;14.90;99.90;;;;;;5072845;28;20312;-74
2022/07/24 03:40:44;;;;;;;;;;;15.00;99.90;;;;;;5072286;28;20265;-72
2022/07/24 03:43:09;;;;;;;;;;;15.10;99.90;;;;;;5071959;28;20381;-74
2022/07/24 03:45:35;;;;;;;;;;;15.10;99.90;;;;;;5073014;28;19954;-75
2022/07/24 03:48:00;;;;;;;;;;;15.00;99.90;;;;;;5072450;28;19908;-74
2022/07/24 03:50:26;;;;;;;;;;;15.10;99.90;;;;;;5072809;28;20354;-74
2022/07/24 03:52:51;;;;;;;;;;;15.20;99.90;;;;;;5071881;28;19908;-74
2022/07/24 03:55:17;;;;;;;;;;;15.20;99.90;;;;;;5072135;28;20361;-74
2022/07/24 03:57:42;;;;;;;;;;;15.10;99.90;;;;;;5075590;28;19964;-73
2022/07/24 04:00:09;;;;;;;;;;;15.10;99.90;;;;;;5071550;28;19972;-74
2022/07/24 04:02:35;;;;;;;;;;;15.20;99.90;;;;;;5072529;28;19914;-73
2022/07/24 04:05:00;;;;;;;;;;;15.30;99.90;;;;;;5072955;28;19996;-73
2022/07/24 04:07:26;;;;;;;;;;;15.10;99.90;;;;;;5072616;28;19993;-74
2022/07/24 04:09:51;;;;;;;;;;;15.10;99.90;;;;;;5072672;28;20003;-74
2022/07/24 04:12:17;;;;;;;;;;;15.00;99.90;;;;;;5072183;28;19909;-74
2022/07/24 04:14:42;;;;;;;;;;;15.00;99.90;;;;;;5072032;28;20011;-72
2022/07/24 04:17:08;;;;;;;;;;;15.10;99.90;;;;;;5072396;28;19908;-74
2022/07/24 04:19:33;;;;;;;;;;;15.10;99.90;;;;;;5072509;28;19909;-74
2022/07/24 04:21:59;;;;;;;;;;;15.20;99.90;;;;;;5071736;28;20357;-74
2022/07/24 04:24:24;;;;;;;;;;;15.30;99.90;;;;;;5073713;28;19980;-74
2022/07/24 04:26:50;;;;;;;;;;;15.30;99.90;;;;;;5073215;28;19908;-74
2022/07/24 04:29:16;;;;;;;;;;;15.30;99.90;;;;;;5072217;28;20434;-74
2022/07/24 04:31:41;;;;;;;;;;;15.40;99.90;;;;;;5071389;28;20414;-74
2022/07/24 04:34:07;;;;;;;;;;;15.40;99.90;;;;;;5071470;28;19908;-73
2022/07/24 04:36:32;;;;;;;;;;;15.50;99.90;;;;;;5091416;28;19959;-74
2022/07/24 04:38:58;;;;;;;;;;;15.60;99.90;;;;;;5091713;28;20361;-74
2022/07/24 04:41:23;;;;;;;;;;;15.70;99.90;;;;;;5091091;28;20336;-74
2022/07/24 04:43:49;;;;;;;;;;;15.70;99.90;;;;;;5090915;28;19920;-75
2022/07/24 04:46:15;;;;;;;;;;;15.70;99.90;;;;;;5091394;28;19908;-74
2022/07/24 04:48:40;;;;;;;;;;;15.80;99.90;;;;;;5091221;28;19908;-74
2022/07/24 04:51:06;;;;;;;;;;;15.80;99.90;;;;;;5082847;28;19952;-74
2022/07/24 04:53:32;;;;;;;;;;;15.90;99.90;;;;;;5084636;28;19908;-74
2022/07/24 04:55:57;;;;;;;;;;;15.90;99.90;;;;;;5076439;28;19948;-74
2022/07/24 04:58:23;;;;;;;;;;;16.00;99.90;;;;;;5071684;28;19913;-74
2022/07/24 05:00:49;;;;;;;;;;;16.10;99.90;;;;;;5071427;28;19916;-74
2022/07/24 05:03:14;;;;;;;;;;;16.30;99.90;;;;;;5070587;28;19913;-74
2022/07/24 05:05:40;;;;;;;;;;;16.30;99.90;;;;;;5070257;28;19916;-74
2022/07/24 05:08:05;;;;;;;;;;;16.50;99.90;;;;;;5071190;28;19916;-74
2022/07/24 05:10:31;;;;;;;;;;;16.50;99.90;;;;;;5071436;28;19909;-74
2022/07/24 05:12:56;;;;;;;;;;;16.60;99.90;;;;;;5071221;28;19912;-74
2022/07/24 05:15:22;;;;;;;;;;;16.70;99.90;;;;;;5071132;28;19959;-73
2022/07/24 05:17:47;;;;;;;;;;;16.80;99.90;;;;;;5071487;28;19909;-74
2022/07/24 05:20:13;;;;;;;;;;;16.90;99.90;;;;;;5071510;28;19970;-74
2022/07/24 05:22:38;;;;;;;;;;;16.90;99.90;;;;;;5070982;28;19916;-73
2022/07/24 05:25:04;;;;;;;;;;;17.00;99.90;;;;;;5071742;28;19914;-74
2022/07/24 05:27:30;;;;;;;;;;;17.10;99.90;;;;;;5078467;28;19912;-75
2022/07/24 05:29:55;;;;;;;;;;;17.10;99.90;;;;;;5071556;28;19909;-74
2022/07/24 05:32:21;;;;;;;;;;;17.20;99.90;;;;;;5071085;28;19999;-74
2022/07/24 05:34:46;;;;;;;;;;;17.40;99.90;;;;;;5069788;28;19908;-72
2022/07/24 05:37:12;;;;;;;;;;;17.80;99.90;;;;;;5070888;28;19908;-74
2022/07/24 05:39:37;;;;;;;;;;;17.80;99.90;;;;;;5070744;28;19952;-74
2022/07/24 05:42:03;;;;;;;;;;;17.80;99.90;;;;;;5090248;28;20365;-73
2022/07/24 05:44:28;;;;;;;;;;;18.10;99.90;;;;;;5091207;28;19912;-74
2022/07/24 05:46:54;;;;;;;;;;;18.50;99.90;;;;;;5094819;28;20297;-74
2022/07/24 05:49:19;;;;;;;;;;;18.50;99.90;;;;;;5094658;28;19999;-73
2022/07/24 05:51:45;;;;;;;;;;;19.40;99.90;;;;;;5094225;28;19954;-74
2022/07/24 05:54:10;;;;;;;;;;;20.30;99.90;;;;;;5083101;28;20003;-74
2022/07/24 05:56:36;;;;;;;;;;;20.90;99.90;;;;;;5074463;28;19909;-74
2022/07/24 05:59:01;;;;;;;;;;;20.20;99.90;;;;;;5073862;28;20354;-74
2022/07/24 06:01:27;;;;;;;;;;;19.60;99.90;;;;;;5074630;28;19909;-72
2022/07/24 06:03:52;;;;;;;;;;;19.30;99.90;;;;;;5074555;28;19924;-74
2022/07/24 06:06:18;;;;;;;;;;;19.40;99.90;;;;;;5074934;28;19943;-74
2022/07/24 06:08:45;;;;;;;;;;;19.60;99.90;;;;;;5074704;28;19909;-74
2022/07/24 06:11:10;;;;;;;;;;;19.60;99.90;;;;;;5073649;28;19947;-74
2022/07/24 06:13:36;;;;;;;;;;;19.80;99.90;;;;;;5074563;28;19913;-75
2022/07/24 06:16:01;;;;;;;;;;;20.00;99.90;;;;;;5075119;28;19909;-74
2022/07/24 06:18:27;;;;;;;;;;;20.00;99.90;;;;;;5075017;28;19912;-75
2022/07/24 06:20:52;;;;;;;;;;;20.00;99.90;;;;;;5074068;28;19908;-75
2022/07/24 06:23:18;;;;;;;;;;;20.10;99.90;;;;;;5074115;28;19916;-75
2022/07/24 06:25:43;;;;;;;;;;;20.60;99.90;;;;;;5075204;28;19912;-75
2022/07/24 06:28:46;;;;;;;;;;;21.30;99.90;;;;;;5068776;28;20004;-75
2022/07/24 06:31:11;;;;;;;;;;;21.50;99.90;;;;;;5080415;28;19944;-75
2022/07/24 06:33:37;;;;;;;;;;;22.40;99.90;;;;;;5073040;28;20008;-75
2022/07/24 06:36:02;;;;;;;;;;;21.80;99.90;;;;;;5072825;28;19919;-75
2022/07/24 06:38:28;;;;;;;;;;;21.30;99.90;;;;;;5073114;28;20277;-74
2022/07/24 06:40:53;;;;;;;;;;;21.30;99.90;;;;;;5076112;28;19909;-74
2022/07/24 06:43:19;;;;;;;;;;;21.50;99.90;;;;;;5073382;28;19912;-73
2022/07/24 06:45:44;;;;;;;;;;;21.60;99.90;;;;;;5072929;28;20362;-73
2022/07/24 06:48:10;;;;;;;;;;;21.70;99.90;;;;;;5074036;28;19909;-74
2022/07/24 06:50:35;;;;;;;;;;;21.70;99.90;;;;;;5075061;28;19914;-74
2022/07/24 06:53:01;;;;;;;;;;;21.80;99.90;;;;;;5073664;28;19912;-75
2022/07/24 06:55:26;;;;;;;;;;;22.00;99.90;;;;;;5072981;28;20277;-73
2022/07/24 06:57:52;;;;;;;;;;;22.90;99.90;;;;;;5073458;28;19913;-74
2022/07/24 07:00:18;;;;;;;;;;;23.40;99.90;;;;;;5074267;28;19913;-74
2022/07/24 07:02:43;;;;;;;;;;;24.50;99.90;;;;;;5074388;28;19919;-74
2022/07/24 07:05:09;;;;;;;;;;;24.90;99.90;;;;;;5073698;28;19912;-74
2022/07/24 07:07:35;;;;;;;;;;;25.10;99.90;;;;;;5074182;28;19909;-73
2022/07/24 07:10:01;;;;;;;;;;;24.70;99.90;;;;;;5074147;28;19916;-74
2022/07/24 07:12:26;;;;;;;;;;;24.90;99.90;;;;;;5072493;28;19909;-75
2022/07/24 07:14:52;;;;;;;;;;;26.00;99.90;;;;;;5073864;28;20053;-75
2022/07/24 07:17:18;;;;;;;;;;;26.10;97.80;;;;;;5074050;28;19904;-74
2022/07/24 07:19:43;;;;;;;;;;;26.00;97.80;;;;;;5073714;28;19916;-74
2022/07/24 07:22:09;;;;;;;;;;;25.80;97.70;;;;;;5073419;28;19913;-75
2022/07/24 07:24:35;;;;;;;;;;;26.30;96.40;;;;;;5078705;28;20542;-75
2022/07/24 07:27:00;;;;;;;;;;;26.80;94.90;;;;;;5073410;28;19909;-75
2022/07/24 07:29:26;;;;;;;;;;;26.80;94.90;;;;;;5073256;28;19915;-73
2022/07/24 07:31:52;;;;;;;;;;;26.80;94.70;;;;;;5073171;28;20272;-73
2022/07/24 07:34:17;;;;;;;;;;;26.80;94.80;;;;;;5073019;28;19955;-76
2022/07/24 07:36:43;;;;;;;;;;;27.50;94.70;;;;;;5074068;28;20421;-77
2022/07/24 07:39:08;;;;;;;;;;;28.10;93.40;;;;;;5073734;28;19944;-77
2022/07/24 07:41:34;;;;;;;;;;;28.30;94.80;;;;;;5073297;28;19908;-75
2022/07/24 07:43:59;;;;;;;;;;;28.50;92.20;;;;;;5072957;28;19913;-77
2022/07/24 07:46:25;;;;;;;;;;;28.90;90.20;;;;;;5072976;28;19909;-76
2022/07/24 07:48:51;;;;;;;;;;;28.50;90.70;;;;;;5073315;28;19966;-76
2022/07/24 07:51:16;;;;;;;;;;;28.40;88.90;;;;;;5073476;28;20309;-75
2022/07/24 07:53:42;;;;;;;;;;;27.90;90.50;;;;;;5071490;28;19919;-75
2022/07/24 07:56:08;;;;;;;;;;;27.60;90.00;;;;;;5073509;28;19959;-76
2022/07/24 07:58:33;;;;;;;;;;;28.20;86.00;;;;;;5072434;28;19913;-77
2022/07/24 08:00:59;;;;;;;;;;;28.40;90.50;;;;;;5075306;28;19919;-78
2022/07/24 08:03:24;;;;;;;;;;;28.40;84.10;;;;;;5078025;28;19978;-76
2022/07/24 08:05:50;;;;;;;;;;;29.00;90.20;;;;;;5076624;28;19962;-78
2022/07/24 08:08:15;;;;;;;;;;;29.30;84.30;;;;;;5074243;28;20411;-77
2022/07/24 08:10:41;;;;;;;;;;;29.00;85.30;;;;;;5074469;28;19999;-77
2022/07/24 08:13:06;;;;;;;;;;;28.00;86.70;;;;;;5072681;28;19908;-76
2022/07/24 08:15:32;;;;;;;;;;;27.30;89.50;;;;;;5073471;28;20320;-76
2022/07/24 08:17:58;;;;;;;;;;;27.90;91.30;;;;;;5072297;28;19908;-77
2022/07/24 08:20:24;;;;;;;;;;;28.50;89.60;;;;;;5074209;28;20324;-77
2022/07/24 08:22:49;;;;;;;;;;;29.10;84.00;;;;;;5075094;28;19916;-77
2022/07/24 08:25:16;;;;;;;;;;;30.10;88.70;;;;;;5078705;28;19923;-76
2022/07/24 08:27:41;;;;;;;;;;;31.20;79.40;;;;;;5073276;28;19909;-77
2022/07/24 08:30:08;;;;;;;;;;;30.40;81.90;;;;;;5071583;28;19912;-77
2022/07/24 08:32:33;;;;;;;;;;;30.20;80.10;;;;;;5068026;28;19912;-77
2022/07/24 08:34:59;;;;;;;;;;;30.30;81.90;;;;;;5073201;28;19931;-76
2022/07/24 08:37:24;;;;;;;;;;;29.60;77.40;;;;;;5073115;28;19909;-77
2022/07/24 08:39:50;;;;;;;;;;;29.60;79.60;;;;;;5073028;28;19931;-76
2022/07/24 08:42:15;;;;;;;;;;;31.10;80.90;;;;;;5071640;28;20008;-76
2022/07/24 08:44:41;;;;;;;;;;;31.10;80.40;;;;;;5070286;28;19974;-75
2022/07/24 08:47:09;;;;;;;;;;;30.30;84.30;;;;;;5072354;28;20320;-76
2022/07/24 08:49:36;;;;;;;;;;;30.30;80.30;;;;;;5072810;28;19954;-74
2022/07/24 08:52:02;;;;;;;;;;;30.50;81.10;;;;;;5070379;28;19916;-76
2022/07/24 08:54:28;;;;;;;;;;;31.70;75.00;;;;;;5069735;28;20258;-76
2022/07/24 08:56:54;;;;;;;;;;;;;;;;;;5071469;28;19916;-75
2022/07/24 08:59:20;;;;;;;;;;;30.20;73.20;;;;;;5070974;28;19958;-74
2022/07/24 09:01:48;;;;;;;;;;;30.90;76.40;;;;;;5076223;28;19908;-76
2022/07/24 09:04:37;;;;;;;;;;;32.30;75.60;;;;;;5090932;28;20284;-77
2022/07/24 09:07:07;;;;;;;;;;;32.80;71.50;;;;;;5078267;28;20349;-75
2022/07/24 09:09:33;;;;;;;;;;;32.80;71.00;;;;;;5090817;28;20364;-77
2022/07/24 09:12:14;;;;;;;;;;;32.90;69.80;;;;;;5089604;28;19919;-77
2022/07/24 09:14:41;;;;;;;;;;;32.50;74.60;;;;;;5090640;28;20381;-75
2022/07/24 09:17:10;;;;;;;;;;;33.10;63.20;;;;;;5091095;28;19909;-76
2022/07/24 09:19:46;;;;;;;;;;;32.90;64.20;;;;;;5090857;28;20399;-74
2022/07/24 09:22:16;;;;;;;;;;;30.90;68.20;;;;;;5090625;28;20057;-76
2022/07/24 09:24:42;;;;;;;;;;;33.00;70.30;;;;;;5075607;28;20376;-75
2022/07/24 09:27:13;;;;;;;;;;;32.30;62.40;;;;;;5071516;28;19908;-77
2022/07/24 09:29:39;;;;;;;;;;;32.10;65.50;;;;;;5071775;28;20419;-76
2022/07/24 09:32:04;;;;;;;;;;;31.50;64.40;;;;;;5071142;28;19908;-76
2022/07/24 09:39:19;;;;;;;;;;;32.80;62.70;;;;;;5072601;28;19946;-77
2022/07/24 09:41:52;;;;;;;;;;;32.40;61.40;;;;;;5068252;28;19913;-76
2022/07/24 09:44:17;;;;;;;;;;;32.40;63.40;;;;;;5068336;28;19912;-76
2022/07/24 09:46:47;;;;;;;;;;;32.40;64.80;;;;;;5067796;28;19931;-76
2022/07/24 09:49:20;;;;;;;;;;;33.30;70.90;;;;;;5069549;28;19947;-76
2022/07/24 09:52:05;;;;;;;;;;;34.00;64.60;;;;;;5062074;28;19948;-76
2022/07/24 09:54:38;;;;;;;;;;;33.20;61.50;;;;;;5067504;28;19923;-76
2022/07/24 09:59:25;;;;;;;;;;;33.60;63.60;;;;;;5075580;28;19962;-76
2022/07/24 10:01:51;;;;;;;;;;;33.80;61.70;;;;;;5068482;28;19966;-75
2022/07/24 10:04:18;;;;;;;;;;;33.90;63.60;;;;;;5068244;28;19909;-74
2022/07/24 10:06:45;;;;;;;;;;;33.70;64.10;;;;;;5068834;28;20408;-76
2022/07/24 10:09:35;;;;;;;;;;;34.20;65.90;;;;;;5072347;28;19913;-77
2022/07/24 10:12:03;;;;;;;;;;;34.00;59.50;;;;;;5068023;28;20258;-76
2022/07/24 10:14:29;;;;;;;;;;;33.60;63.50;;;;;;5067823;28;19908;-76
2022/07/24 10:20:02;;;;;;;;;;;32.00;59.70;;;;;;5074609;28;19912;-74
2022/07/24 10:22:28;;;;;;;;;;;;;;;;;;5068271;28;19912;-76
2022/07/24 10:24:54;;;;;;;;;;;;;;;;;;5067518;28;19909;-75
2022/07/24 10:30:09;;;;;;;;;;;32.40;61.10;;;;;;5072436;28;19913;-75
2022/07/24 10:41:37;;;;;;;;;;;31.70;56.40;;;;;;5071234;28;19931;-76
2022/07/24 10:44:33;;;;;;;;;;;32.30;55.90;;;;;;5094191;27;20288;-76
2022/07/24 10:46:59;;;;;;;;;;;30.30;62.30;;;;;;5089657;28;19999;-76
2022/07/24 10:49:42;;;;;;;;;;;30.20;62.20;;;;;;5089037;28;19919;-76
2022/07/24 10:52:08;;;;;;;;;;;29.60;62.00;;;;;;5088951;28;19916;-77
2022/07/24 10:54:34;;;;;;;;;;;31.80;62.70;;;;;;5087979;28;19957;-76
2022/07/24 10:57:00;;;;;;;;;;;31.50;57.30;;;;;;5089129;28;19912;-76
2022/07/24 10:59:41;;;;;;;;;;;30.20;64.80;;;;;;5088799;28;19916;-77
2022/07/24 11:04:19;;;;;;;;;;;30.50;66.50;;;;;;5127021;27;19917;-77
2022/07/24 11:06:55;;;;;;;;;;;29.50;67.90;;;;;;5104841;28;20307;-75
2022/07/24 11:09:22;;;;;;;;;;;28.90;65.90;;;;;;5068535;28;19931;-74
2022/07/24 11:11:51;;;;;;;;;;;29.30;67.90;;;;;;5068298;28;19909;-76
2022/07/24 11:14:50;;;;;;;;;;;29.40;68.70;;;;;;5078042;28;20382;-76
2022/07/24 11:17:35;;;;;;;;;;;30.30;72.50;;;;;;5067497;28;20019;-76
2022/07/24 11:20:00;;;;;;;;;;;30.60;68.20;;;;;;5068460;28;19909;-76
2022/07/24 11:27:45;;;;;;;;;;;32.60;64.70;;;;;;5068332;28;19913;-75
2022/07/24 11:30:19;;;;;;;;;;;32.90;62.00;;;;;;5091931;27;19916;-77
2022/07/24 11:32:44;;;;;;;;;;;33.20;59.40;;;;;;5086306;28;20404;-76
2022/07/24 11:39:39;;;;;;;;;;;29.70;64.80;;;;;;5092845;27;19912;-76
2022/07/24 11:42:07;;;;;;;;;;;29.50;63.70;;;;;;5087798;28;20198;-76
2022/07/24 11:44:34;;;;;;;;;;;29.70;66.00;;;;;;5087684;28;19908;-75
2022/07/24 11:51:02;;;;;;;;;;;29.70;69.70;;;;;;5093878;27;19912;-76
2022/07/24 11:53:28;;;;;;;;;;;31.70;63.30;;;;;;5087090;28;19938;-75
2022/07/24 11:56:02;;;;;;;;;;;32.90;64.70;;;;;;5089170;28;20162;-74
2022/07/24 12:00:29;;;;;;;;;;;32.50;59.60;;;;;;5069484;28;20381;-77
2022/07/24 12:02:56;;;;;;;;;;;33.30;56.50;;;;;;5067788;28;20019;-76
2022/07/24 12:05:26;;;;;;;;;;;32.70;55.90;;;;;;5067918;28;19909;-75
2022/07/24 12:07:52;;;;;;;;;;;33.20;58.60;;;;;;5068084;28;19916;-76
2022/07/24 12:12:19;;;;;;;;;;;33.30;57.80;;;;;;5071967;28;19912;-76
2022/07/24 12:16:53;;;;;;;;;;;33.30;58.90;;;;;;5070275;28;19917;-76
2022/07/24 12:19:19;;;;;;;;;;;32.90;54.80;;;;;;5068667;28;19917;-74
2022/07/24 12:21:46;;;;;;;;;;;32.70;56.30;;;;;;5068798;28;19991;-76
2022/07/24 12:24:12;;;;;;;;;;;33.50;56.20;;;;;;5067389;28;19909;-76
2022/07/24 12:26:50;;;;;;;;;;;34.50;57.10;;;;;;5067827;28;19915;-76
2022/07/24 12:29:16;;;;;;;;;;;34.70;55.30;;;;;;5062169;28;20011;-76
2022/07/24 12:31:41;;;;;;;;;;;33.90;54.60;;;;;;5066605;28;19999;-76
2022/07/24 12:34:07;;;;;;;;;;;33.60;53.50;;;;;;5067532;28;20374;-75
2022/07/24 12:36:32;;;;;;;;;;;32.80;54.40;;;;;;5068543;28;19913;-76
2022/07/24 12:38:58;;;;;;;;;;;31.70;58.70;;;;;;5068196;28;19909;-77
2022/07/24 12:41:27;;;;;;;;;;;32.90;58.10;;;;;;5067260;28;19908;-76
2022/07/24 12:43:57;;;;;;;;;;;36.20;48.10;;;;;;5067448;28;19908;-75
2022/07/24 12:46:30;;;;;;;;;;;37.60;50.30;;;;;;5068177;28;19915;-77
2022/07/24 12:49:06;;;;;;;;;;;38.80;45.20;;;;;;5068136;28;19916;-75
2022/07/24 12:51:49;;;;;;;;;;;38.50;48.70;;;;;;5066791;28;20427;-75
2022/07/24 12:54:21;;;;;;;;;;;39.00;48.50;;;;;;5066617;28;20292;-74
2022/07/24 12:56:48;;;;;;;;;;;38.90;47.10;;;;;;5066104;28;19962;-76
2022/07/24 12:59:25;;;;;;;;;;;38.60;43.20;;;;;;5069051;28;19913;-75
2022/07/24 13:01:55;;;;;;;;;;;39.00;44.70;;;;;;5068396;28;19999;-76
2022/07/24 13:04:22;;;;;;;;;;;35.50;46.60;;;;;;5068063;28;19909;-76
2022/07/24 13:06:49;;;;;;;;;;;36.10;51.60;;;;;;5068599;28;20332;-76
2022/07/24 13:09:26;;;;;;;;;;;38.30;44.90;;;;;;5083052;28;20324;-76
2022/07/24 13:11:53;;;;;;;;;;;37.70;46.30;;;;;;5054142;28;19920;-76
2022/07/24 13:14:20;;;;;;;;;;;38.40;42.90;;;;;;5048071;28;19909;-75
2022/07/24 13:16:46;;;;;;;;;;;38.80;44.60;;;;;;5047679;28;19956;-76
2022/07/24 13:19:12;;;;;;;;;;;38.70;43.50;;;;;;5067649;28;20259;-75
2022/07/24 13:26:05;;;;;;;;;;;38.00;46.80;;;;;;5079335;28;19913;-76
2022/07/24 13:28:31;;;;;;;;;;;38.20;43.20;;;;;;5073396;28;20007;-77
2022/07/24 13:33:52;;;;;;;;;;;38.70;43.20;;;;;;5121517;27;19916;-76
2022/07/24 13:37:31;;;;;;;;;;;39.30;39.40;;;;;;5073140;28;19920;-77
2022/07/24 13:39:56;;;;;;;;;;;39.40;40.70;;;;;;5069347;28;20378;-76
2022/07/24 13:42:22;;;;;;;;;;;38.90;40.40;;;;;;5067150;28;20022;-77
2022/07/24 13:44:47;;;;;;;;;;;38.80;45.40;;;;;;5068888;28;19978;-77
2022/07/24 13:47:13;;;;;;;;;;;37.30;46.60;;;;;;5069852;28;19912;-77
2022/07/24 13:49:38;;;;;;;;;;;38.20;41.90;;;;;;5068569;28;20378;-75
2022/07/24 13:52:04;;;;;;;;;;;37.90;42.90;;;;;;5067045;28;19921;-77
2022/07/24 13:57:50;;;;;;;;;;;39.40;41.60;;;;;;5074442;28;19946;-77
2022/07/24 14:00:15;;;;;;;;;;;39.40;41.60;;;;;;5067223;28;20003;-77
2022/07/24 14:02:41;;;;;;;;;;;39.60;40.70;;;;;;5067719;28;20369;-76
2022/07/24 14:05:07;;;;;;;;;;;39.60;43.00;;;;;;5067360;28;20286;-77
2022/07/24 14:07:32;;;;;;;;;;;38.50;44.70;;;;;;5068061;28;19992;-77
2022/07/24 14:09:58;;;;;;;;;;;38.40;44.20;;;;;;5067392;28;19909;-77
2022/07/24 14:12:24;;;;;;;;;;;38.60;39.60;;;;;;5067025;28;20436;-77
2022/07/24 14:14:50;;;;;;;;;;;38.30;40.30;;;;;;5061419;28;20374;-77
2022/07/24 14:17:16;;;;;;;;;;;38.10;40.40;;;;;;5068251;28;19959;-77
2022/07/24 14:19:41;;;;;;;;;;;38.40;42.00;;;;;;5067553;28;20306;-77
2022/07/24 14:22:07;;;;;;;;;;;38.50;42.70;;;;;;5067990;28;19923;-75
2022/07/24 14:24:32;;;;;;;;;;;38.20;42.50;;;;;;5066507;28;19936;-76
2022/07/24 14:26:58;;;;;;;;;;;37.00;42.80;;;;;;5067940;28;19908;-76
2022/07/24 14:29:24;;;;;;;;;;;37.30;44.90;;;;;;5068133;28;19909;-76
2022/07/24 14:31:49;;;;;;;;;;;38.10;41.20;;;;;;5066572;28;19909;-75
2022/07/24 14:34:15;;;;;;;;;;;38.50;44.50;;;;;;5070012;28;19975;-77
2022/07/24 14:36:41;;;;;;;;;;;38.90;43.20;;;;;;5068568;28;19916;-76
2022/07/24 14:39:07;;;;;;;;;;;39.10;40.40;;;;;;5075991;28;19908;-76
2022/07/24 14:41:32;;;;;;;;;;;38.60;42.20;;;;;;5070965;28;20289;-76
2022/07/24 14:43:58;;;;;;;;;;;38.70;41.30;;;;;;5071168;28;19908;-76
2022/07/24 14:46:23;;;;;;;;;;;38.70;41.00;;;;;;5072667;28;19908;-76
2022/07/24 14:48:49;;;;;;;;;;;38.40;45.30;;;;;;5068922;28;20545;-76
2022/07/24 14:51:14;;;;;;;;;;;38.20;43.00;;;;;;5072149;28;19993;-75
2022/07/24 14:53:40;;;;;;;;;;;38.00;44.40;;;;;;5073632;28;19928;-75
2022/07/24 14:56:05;;;;;;;;;;;38.60;41.10;;;;;;5072722;28;20437;-76
2022/07/24 14:58:31;;;;;;;;;;;38.70;43.10;;;;;;5074219;28;19917;-76
2022/07/24 15:00:56;;;;;;;;;;;38.20;44.70;;;;;;5072386;28;19916;-76
2022/07/24 15:03:22;;;;;;;;;;;38.00;44.70;;;;;;5074426;28;19909;-75
2022/07/24 15:05:47;;;;;;;;;;;38.00;43.90;;;;;;5074379;28;19916;-76
2022/07/24 15:08:13;;;;;;;;;;;37.80;45.50;;;;;;5063634;28;19939;-75
2022/07/24 15:10:39;;;;;;;;;;;35.90;49.20;;;;;;5056606;28;19917;-76
2022/07/24 15:13:04;;;;;;;;;;;34.10;49.70;;;;;;5055267;28;19916;-75